createdAt,value
2022-09-14T00:00:28.091Z,57.55
2022-09-14T00:02:56.240Z,57.32
2022-09-14T00:05:24.255Z,57.53
2022-09-14T00:07:51.947Z,57.51
2022-09-14T00:10:19.794Z,57.54
2022-09-14T00:12:47.632Z,57.55
2022-09-14T00:15:15.741Z,57.67
2022-09-14T00:17:45.034Z,57.57
2022-09-14T00:20:13.227Z,57.36
2022-09-14T00:22:41.032Z,57.51
2022-09-14T00:25:09.738Z,57.39
2022-09-14T00:27:37.612Z,57.25
2022-09-14T00:30:06.477Z,57.37
2022-09-14T00:32:34.316Z,57.35
2022-09-14T00:35:03.681Z,57.28
2022-09-14T00:37:31.690Z,57.48
2022-09-14T00:39:59.668Z,57.43
2022-09-14T00:42:27.457Z,57.44
2022-09-14T00:45:11.552Z,57.33
2022-09-14T00:47:39.464Z,57.36
2022-09-14T00:50:10.218Z,57.05
2022-09-14T00:52:41.917Z,57.13
2022-09-14T00:55:13.483Z,57.10
2022-09-14T00:57:44.815Z,57.09
2022-09-14T01:00:14.783Z,56.98
2022-09-14T01:02:43.344Z,56.94
2022-09-14T01:05:13.536Z,57.01
2022-09-14T01:08:01.631Z,57.14
2022-09-14T01:10:41.148Z,57.25
2022-09-14T01:13:19.846Z,57.62
2022-09-14T01:15:56.524Z,57.35
2022-09-14T01:18:29.419Z,57.56
2022-09-14T01:21:03.889Z,57.57
2022-09-14T01:23:37.868Z,57.78
2022-09-14T01:26:39.948Z,57.70
2022-09-14T01:29:14.820Z,58.00
2022-09-14T01:31:50.562Z,58.24
2022-09-14T01:34:24.456Z,57.61
2022-09-14T01:36:59.041Z,57.99
2022-09-14T01:39:31.734Z,57.88
2022-09-14T01:42:01.505Z,57.82
2022-09-14T01:44:33.963Z,57.91
2022-09-14T01:47:06.586Z,57.95
2022-09-14T01:49:38.260Z,57.96
2022-09-14T01:52:10.118Z,58.10
2022-09-14T01:54:43.948Z,58.42
2022-09-14T01:57:17.708Z,58.70
2022-09-14T01:59:49.112Z,58.66
2022-09-14T02:02:21.179Z,58.92
2022-09-14T02:04:54.406Z,59.04
2022-09-14T02:07:22.210Z,59.01
2022-09-14T02:09:51.484Z,59.49
2022-09-14T02:12:19.544Z,60.11
2022-09-14T02:14:49.067Z,60.19
2022-09-14T02:17:17.212Z,60.01
2022-09-14T02:19:49.764Z,61.86
2022-09-14T02:22:17.379Z,63.07
2022-09-14T02:24:45.085Z,63.82
2022-09-14T02:27:12.708Z,64.43
2022-09-14T02:29:40.465Z,64.61
2022-09-14T02:32:20.591Z,65.57
2022-09-14T02:34:56.021Z,66.85
2022-09-14T02:37:31.499Z,66.60
2022-09-14T02:40:07.203Z,67.35
2022-09-14T02:42:41.254Z,67.77
2022-09-14T02:45:19.265Z,68.63
2022-09-14T02:47:55.981Z,69.44
2022-09-14T02:50:30.322Z,69.30
2022-09-14T02:53:03.078Z,69.67
2022-09-14T02:55:36.000Z,69.78
2022-09-14T02:58:06.289Z,70.33
2022-09-14T03:00:40.806Z,70.57
2022-09-14T03:03:11.965Z,70.98
2022-09-14T03:05:40.340Z,70.72
2022-09-14T03:08:10.267Z,71.00
2022-09-14T03:10:38.650Z,71.00
2022-09-14T03:13:06.353Z,71.99
2022-09-14T03:15:33.985Z,72.18
2022-09-14T03:18:01.677Z,72.78
2022-09-14T03:20:34.091Z,74.01
2022-09-14T03:23:02.361Z,73.88
2022-09-14T03:25:30.262Z,72.93
2022-09-14T03:27:59.205Z,73.45
2022-09-14T03:30:27.664Z,73.63
2022-09-14T03:32:55.268Z,74.49
2022-09-14T03:35:22.939Z,74.48
2022-09-14T03:37:52.281Z,75.04
2022-09-14T03:40:22.014Z,76.04
2022-09-14T03:42:52.156Z,76.04
2022-09-14T03:45:21.108Z,74.97
2022-09-14T03:47:49.332Z,75.18
2022-09-14T03:50:18.343Z,75.34
2022-09-14T03:52:46.235Z,75.30
2022-09-14T03:55:15.577Z,75.31
2022-09-14T03:57:43.237Z,75.38
2022-09-14T04:00:12.801Z,75.84
2022-09-14T04:02:40.906Z,75.79
2022-09-14T04:05:09.287Z,76.12
2022-09-14T04:07:38.065Z,76.39
2022-09-14T04:10:07.103Z,76.71
2022-09-14T04:12:36.880Z,78.18
2022-09-14T04:15:05.197Z,77.90
2022-09-14T04:17:32.977Z,76.95
2022-09-14T04:20:00.885Z,78.50
2022-09-14T04:22:28.480Z,78.20
2022-09-14T04:24:56.129Z,77.58
2022-09-14T04:27:23.724Z,77.84
2022-09-14T04:29:52.749Z,77.36
2022-09-14T04:32:20.430Z,77.28
2022-09-14T05:17:53.802Z,80.33
2022-09-14T05:20:21.399Z,80.68
2022-09-14T05:22:51.220Z,81.96
2022-09-14T05:25:18.977Z,80.90
2022-09-14T05:27:46.459Z,81.41
2022-09-14T05:30:14.139Z,80.42
2022-09-14T05:32:41.617Z,80.12
2022-09-14T05:35:11.133Z,80.96
2022-09-14T05:37:38.797Z,81.19
2022-09-14T05:40:07.735Z,81.49
2022-09-14T05:42:35.320Z,80.33
2022-09-14T05:47:44.504Z,79.50
2022-09-14T05:50:14.736Z,79.41
2022-09-14T05:52:42.266Z,79.85
2022-09-14T05:55:10.546Z,80.00
2022-09-14T05:57:38.144Z,79.31
2022-09-14T06:03:21.411Z,79.93
2022-09-14T06:05:50.349Z,80.07
2022-09-14T10:26:27.865Z,30.43
2022-09-14T10:28:55.408Z,29.25
2022-09-14T10:31:32.029Z,27.12
2022-09-14T10:34:00.784Z,28.02
2022-09-14T10:36:31.000Z,26.33
2022-09-14T10:39:04.740Z,26.00
2022-09-14T10:41:40.069Z,26.24
2022-09-14T10:44:33.451Z,26.30
2022-09-14T10:47:16.747Z,25.14
2022-09-14T10:49:57.982Z,25.48
2022-09-14T10:52:32.276Z,26.62
2022-09-14T10:55:16.047Z,26.39
2022-09-14T10:57:54.200Z,26.30
2022-09-14T11:00:22.821Z,27.81
2022-09-14T11:03:11.693Z,28.30
2022-09-14T11:05:44.589Z,29.54
2022-09-14T11:08:19.500Z,31.34
2022-09-14T11:10:56.818Z,32.42
2022-09-14T11:13:47.310Z,34.66
2022-09-14T11:16:30.881Z,35.72
2022-09-14T11:19:08.377Z,38.18
2022-09-14T11:21:48.093Z,37.09
2022-09-14T11:24:22.613Z,37.76
2022-09-14T11:27:00.223Z,40.05
2022-09-14T11:29:34.043Z,39.33
2022-09-14T11:32:22.687Z,40.79
2022-09-14T11:34:58.591Z,40.81
2022-09-14T11:37:34.443Z,41.73
2022-09-14T11:40:20.599Z,44.10
2022-09-14T11:43:00.391Z,44.58
2022-09-14T11:45:36.620Z,44.41
2022-09-14T11:48:41.994Z,44.71
2022-09-14T11:51:15.476Z,45.10
2022-09-14T11:53:44.820Z,44.34
2022-09-14T11:56:27.153Z,44.51
2022-09-14T11:58:56.669Z,45.63
2022-09-14T12:01:39.417Z,46.24
2022-09-14T12:04:19.361Z,46.16
2022-09-14T12:06:54.110Z,45.71
2022-09-14T12:09:54.704Z,45.80
2022-09-14T12:12:34.341Z,45.49
2022-09-14T12:15:04.973Z,45.56
2022-09-14T12:17:40.193Z,44.66
2022-09-14T12:20:29.826Z,46.01
2022-09-14T12:23:14.827Z,45.29
2022-09-14T12:25:58.012Z,45.99
2022-09-14T12:28:49.102Z,45.75
2022-09-14T12:31:36.726Z,46.12
2022-09-14T12:34:19.672Z,45.53
2022-09-14T12:37:18.368Z,45.87
2022-09-14T12:40:27.887Z,45.00
2022-09-14T12:42:55.727Z,44.89
2022-09-14T12:45:49.192Z,45.77
2022-09-14T12:48:58.541Z,45.97
2022-09-14T12:51:40.256Z,45.59
2022-09-14T12:54:20.794Z,46.35
2022-09-14T12:56:58.790Z,47.34
2022-09-14T12:59:34.956Z,47.11
2022-09-14T13:02:17.107Z,46.66
2022-09-14T13:04:47.821Z,47.13
2022-09-14T13:07:19.133Z,47.17
2022-09-14T13:09:49.025Z,48.67
2022-09-14T13:12:24.866Z,48.71
2022-09-14T13:14:55.688Z,49.05
2022-09-14T13:17:24.223Z,48.92
2022-09-14T13:19:56.104Z,49.57
2022-09-14T13:22:26.644Z,49.59
2022-09-14T13:24:56.259Z,50.33
2022-09-14T13:27:26.402Z,50.28
2022-09-14T13:30:03.047Z,51.22
2022-09-14T13:32:31.842Z,50.92
2022-09-14T13:34:59.477Z,49.90
2022-09-14T13:37:28.503Z,50.71
2022-09-14T13:39:58.823Z,50.51
2022-09-14T13:42:27.555Z,51.30
2022-09-14T13:44:55.482Z,52.25
2022-09-14T13:47:24.841Z,53.60
2022-09-14T13:49:54.501Z,53.67
2022-09-14T14:04:25.011Z,56.47
